Time;durP1;ratioP1;P1;durP2;ratioP2;P2;SDS_P1;SDS_P2;PMS_P1;PMS_P2;Temp;Humidity;BMP_temperature;BMP_pressure;BME280_temperature;BME280_humidity;BME280_pressure;Samples;Min_cycle;Max_cycle;Signal;HPM_P1;HPM_P2
2022/10/03 00:02:28;;;;;;;1.75;0.30;;;19.20;99.90;;;;;;5074512;28;20020;-66
2022/10/03 00:05:19;;;;;;;1.58;0.30;;;19.60;99.90;;;;;;5070795;28;20407;-66
2022/10/03 00:08:16;;;;;;;1.02;0.40;;;19.30;99.90;;;;;;5075921;28;20387;-67
2022/10/03 00:11:07;;;;;;;1.65;0.40;;;19.00;99.90;;;;;;5068198;28;20025;-66
2022/10/03 00:14:00;;;;;;;3.28;0.88;;;18.80;99.90;;;;;;5076313;28;20017;-65
2022/10/03 00:16:43;;;;;;;1.77;0.63;;;18.70;99.90;;;;;;5075714;28;20539;-66
2022/10/03 00:19:24;;;;;;;1.42;0.45;;;18.70;99.90;;;;;;5075665;28;20388;-66
2022/10/03 00:22:00;;;;;;;1.70;0.43;;;19.00;99.90;;;;;;5075705;28;20024;-66
2022/10/03 00:24:37;;;;;;;2.28;0.65;;;19.60;99.90;;;;;;5075726;28;20029;-66
2022/10/03 00:27:13;;;;;;;3.38;0.65;;;19.70;99.90;;;;;;5075801;28;20389;-68
2022/10/03 00:30:12;;;;;;;1.40;0.60;;;20.20;99.90;;;;;;5075577;28;20021;-67
2022/10/03 00:32:45;;;;;;;1.98;0.50;;;20.50;99.90;;;;;;5075756;28;20051;-67
2022/10/03 00:35:38;;;;;;;0.95;0.43;;;20.50;99.90;;;;;;5075355;28;20480;-66
2022/10/03 00:38:14;;;;;;;1.27;0.20;;;20.80;99.90;;;;;;5075818;28;20112;-67
2022/10/03 00:41:08;;;;;;;2.05;0.88;;;20.80;99.90;;;;;;5074620;28;20095;-68
2022/10/03 00:43:55;;;;;;;1.05;0.40;;;20.80;99.90;;;;;;5075119;28;20041;-67
2022/10/03 00:46:46;;;;;;;1.30;0.52;;;20.40;99.90;;;;;;5075170;28;20037;-66
2022/10/03 00:49:50;;;;;;;1.17;0.43;;;19.70;99.90;;;;;;5075271;28;20530;-67
2022/10/03 00:52:40;;;;;;;2.40;0.60;;;19.60;99.90;;;;;;5075192;28;20025;-68
2022/10/03 00:55:29;;;;;;;4.18;0.70;;;19.40;99.90;;;;;;5075385;28;20021;-67
2022/10/03 00:58:19;;;;;;;0.98;0.40;;;19.40;99.90;;;;;;5074901;28;20395;-70
2022/10/03 01:00:51;;;;;;;1.75;0.40;;;19.30;99.90;;;;;;5074390;28;20443;-67
2022/10/03 01:03:41;;;;;;;2.30;0.50;;;19.10;99.90;;;;;;5073504;28;20028;-67
2022/10/03 01:06:28;;;;;;;0.40;0.30;;;18.90;99.90;;;;;;5074719;28;20032;-66
2022/10/03 01:09:18;;;;;;;1.88;0.45;;;18.90;99.90;;;;;;5074816;28;20071;-66
2022/10/03 01:12:02;;;;;;;1.17;0.57;;;19.00;99.90;;;;;;5074713;28;20017;-66
2022/10/03 01:14:58;;;;;;;1.45;0.40;;;19.00;99.90;;;;;;5074743;28;20427;-65
2022/10/03 01:17:59;;;;;;;1.25;0.40;;;19.40;99.90;;;;;;5074037;28;20099;-66
2022/10/03 01:20:50;;;;;;;1.40;0.55;;;20.50;99.90;;;;;;5074521;28;20429;-67
2022/10/03 01:23:58;;;;;;;2.90;0.30;;;21.40;99.90;;;;;;5074456;28;20116;-68
2022/10/03 01:26:56;;;;;;;2.25;0.43;;;22.00;99.40;;;;;;5072494;28;20071;-67
2022/10/03 01:32:33;;;;;;;1.17;0.30;;;21.40;99.60;;;;;;5074215;28;20027;-67
2022/10/03 01:35:25;;;;;;;2.13;0.40;;;21.50;99.80;;;;;;5074270;28;20066;-66
2022/10/03 01:38:05;;;;;;;1.65;0.40;;;21.60;98.50;;;;;;5072906;28;20023;-66
2022/10/03 01:40:41;;;;;;;1.17;0.25;;;21.60;98.90;;;;;;5074722;28;20067;-68
2022/10/03 01:43:30;;;;;;;1.52;0.40;;;22.00;99.00;;;;;;5072555;28;20044;-66
2022/10/03 01:46:16;;;;;;;1.17;0.40;;;21.90;99.60;;;;;;5074010;28;20047;-66
2022/10/03 01:49:09;;;;;;;0.80;0.10;;;21.60;99.00;;;;;;5074010;28;20491;-66
2022/10/03 01:51:52;;;;;;;0.68;0.20;;;21.80;98.30;;;;;;5072658;28;20028;-66
2022/10/03 01:54:43;;;;;;;0.93;0.28;;;22.00;98.30;;;;;;5074096;28;20013;-65
2022/10/03 01:57:34;;;;;;;1.50;0.20;;;21.90;98.40;;;;;;5074123;28;20048;-67
2022/10/03 02:00:11;;;;;;;2.15;0.30;;;21.60;98.00;;;;;;5072517;28;20029;-67
2022/10/03 02:02:53;;;;;;;0.90;0.25;;;21.70;98.50;;;;;;5073667;28;20032;-66
2022/10/03 02:05:39;;;;;;;0.70;0.30;;;22.00;98.80;;;;;;5074113;28;20067;-66
2022/10/03 02:08:29;;;;;;;0.73;0.30;;;22.10;98.30;;;;;;5072738;28;20036;-67
2022/10/03 02:11:10;;;;;;;0.52;0.20;;;22.10;97.90;;;;;;5073679;28;20039;-67
2022/10/03 02:13:47;;;;;;;0.80;0.30;;;22.20;98.50;;;;;;5073522;28;20017;-66
2022/10/03 02:16:33;;;;;;;0.95;0.30;;;21.90;97.10;;;;;;5073554;28;20077;-67
2022/10/03 02:19:45;;;;;;;0.57;0.20;;;22.00;98.20;;;;;;5073448;28;20093;-66
2022/10/03 02:22:30;;;;;;;1.90;0.20;;;22.10;98.20;;;;;;5073593;28;20044;-67
2022/10/03 02:25:51;;;;;;;0.88;0.25;;;22.10;97.30;;;;;;5073243;28;20082;-67
2022/10/03 02:28:47;;;;;;;2.63;0.20;;;21.80;97.30;;;;;;5073243;28;20021;-66
2022/10/03 02:31:31;;;;;;;1.70;0.65;;;22.00;98.80;;;;;;5073400;28;20027;-66
2022/10/03 02:34:10;;;;;;;4.40;0.40;;;22.00;98.40;;;;;;5073296;28;20109;-66
2022/10/03 02:37:01;;;;;;;3.17;0.52;;;22.00;99.90;;;;;;5073602;28;20436;-67
2022/10/03 02:39:53;;;;;;;1.88;0.50;;;21.90;99.10;;;;;;5071688;28;20028;-66
2022/10/03 02:42:33;;;;;;;1.38;0.55;;;22.10;99.90;;;;;;5071819;28;20457;-67
2022/10/03 02:45:24;;;;;;;2.22;0.70;;;22.30;99.70;;;;;;5071880;28;20437;-67
2022/10/03 02:48:16;;;;;;;1.60;0.40;;;22.30;99.90;;;;;;5072367;28;20027;-66
2022/10/03 02:51:05;;;;;;;2.33;0.47;;;21.90;99.90;;;;;;5072903;28;20380;-66
2022/10/03 02:53:32;;;;;;;1.13;0.40;;;22.00;99.90;;;;;;5072817;28;20147;-68
2022/10/03 02:56:20;;;;;;;3.00;0.50;;;22.20;99.90;;;;;;5070890;28;20025;-65
2022/10/03 02:59:25;;;;;;;2.60;0.50;;;21.60;99.90;;;;;;5072589;28;20049;-66
2022/10/03 03:02:10;;;;;;;2.58;0.50;;;22.10;99.90;;;;;;5072898;28;20469;-68
2022/10/03 03:04:41;;;;;;;1.73;0.40;;;22.30;99.90;;;;;;5072289;28;20025;-67
2022/10/03 03:07:30;;;;;;;0.57;0.30;;;22.20;99.90;;;;;;5071965;28;20036;-66
2022/10/03 03:10:33;;;;;;;2.47;0.65;;;22.00;99.90;;;;;;5073014;28;20070;-67
2022/10/03 03:13:40;;;;;;;1.63;0.60;;;21.80;99.90;;;;;;5013668;28;20108;-67
2022/10/03 03:16:22;;;;;;;2.65;0.40;;;22.10;99.90;;;;;;5048295;28;20086;-67
2022/10/03 03:19:15;;;;;;;2.25;0.52;;;22.40;99.90;;;;;;5072733;28;20170;-67
2022/10/03 03:22:14;;;;;;;3.67;0.60;;;22.20;99.40;;;;;;5070030;28;20025;-66
2022/10/03 03:25:17;;;;;;;1.25;0.35;;;22.30;99.90;;;;;;5072194;28;20024;-66
2022/10/03 03:28:10;;;;;;;2.60;0.52;;;22.10;99.70;;;;;;5072650;28;20024;-66
2022/10/03 03:30:56;;;;;;;0.55;0.35;;;22.50;99.90;;;;;;5072501;28;20048;-68
2022/10/03 03:33:35;;;;;;;2.17;0.50;;;22.90;99.90;;;;;;5071293;28;20021;-68
2022/10/03 03:36:35;;;;;;;1.33;0.45;;;22.10;99.80;;;;;;5072551;28;20025;-69
2022/10/03 03:39:24;;;;;;;1.15;0.30;;;21.90;99.90;;;;;;5071583;28;20029;-68
2022/10/03 03:42:11;;;;;;;2.03;0.38;;;22.10;99.90;;;;;;5071893;28;20089;-68
2022/10/03 03:44:53;;;;;;;1.95;0.40;;;22.20;99.90;;;;;;5071420;28;20040;-68
2022/10/03 03:47:41;;;;;;;1.25;0.57;;;21.80;99.90;;;;;;5073017;28;20101;-68
2022/10/03 03:50:19;;;;;;;2.75;0.47;;;21.80;99.90;;;;;;5071042;28;20028;-68
2022/10/03 03:53:04;;;;;;;2.03;0.40;;;22.10;99.90;;;;;;5072611;28;20028;-69
2022/10/03 03:55:47;;;;;;;1.52;0.40;;;22.10;99.90;;;;;;5072441;28;20365;-68
2022/10/03 03:58:32;;;;;;;2.70;0.50;;;22.50;99.90;;;;;;5072431;28;20020;-68
2022/10/03 04:01:21;;;;;;;1.60;0.40;;;22.20;99.30;;;;;;5072408;28;20469;-69
2022/10/03 04:04:04;;;;;;;2.97;0.85;;;22.10;99.40;;;;;;5070968;28;20115;-68
2022/10/03 04:06:53;;;;;;;2.25;0.50;;;21.70;99.30;;;;;;5072631;28;20044;-68
2022/10/03 04:09:45;;;;;;;3.03;0.45;;;21.50;99.60;;;;;;5072385;28;20012;-68
2022/10/03 04:12:31;;;;;;;1.25;0.40;;;21.20;99.50;;;;;;5072689;28;20023;-68
2022/10/03 04:15:06;;;;;;;2.03;0.35;;;21.10;99.80;;;;;;5072765;28;20016;-68
2022/10/03 04:20:48;;;;;;;1.50;0.22;;;21.60;99.60;;;;;;5075936;28;20036;-67
2022/10/03 04:23:37;;;;;;;0.80;0.30;;;21.90;99.10;;;;;;5075850;28;20128;-67
2022/10/03 04:26:36;;;;;;;0.90;0.30;;;22.00;99.30;;;;;;5074062;28;20094;-69
2022/10/03 04:29:13;;;;;;;1.98;0.30;;;21.90;99.30;;;;;;5075389;28;20090;-68
2022/10/03 04:32:09;;;;;;;2.00;0.30;;;22.10;99.30;;;;;;5075938;28;20051;-68
2022/10/03 04:34:49;;;;;;;1.27;0.22;;;21.80;99.00;;;;;;5076006;28;20044;-69
2022/10/03 04:37:39;;;;;;;2.33;0.30;;;21.70;98.50;;;;;;5074021;28;20039;-68
2022/10/03 04:40:43;;;;;;;1.73;0.20;;;21.60;99.50;;;;;;5075793;28;20029;-68
2022/10/03 04:43:34;;;;;;;4.63;0.50;;;21.30;99.90;;;;;;5074921;28;20033;-68
2022/10/03 04:46:01;;;;;;;1.23;0.30;;;21.20;99.90;;;;;;5075568;28;20039;-68
2022/10/03 04:48:29;;;;;;;2.78;0.57;;;21.50;99.90;;;;;;5075295;28;20046;-68
2022/10/03 04:51:12;;;;;;;1.67;0.47;;;21.40;99.40;;;;;;5075348;28;20069;-68
2022/10/03 04:53:59;;;;;;;1.33;0.30;;;21.60;99.30;;;;;;5075224;28;20020;-68
2022/10/03 04:57:02;;;;;;;1.55;0.40;;;21.70;99.80;;;;;;5075201;28;20488;-68
2022/10/03 04:59:36;;;;;;;0.88;0.40;;;21.70;99.60;;;;;;5074200;28;20017;-68
2022/10/03 05:02:14;;;;;;;2.10;0.40;;;21.60;99.70;;;;;;5074072;28;20062;-67
2022/10/03 05:05:18;;;;;;;1.13;0.25;;;21.50;99.60;;;;;;5073378;28;20029;-67
2022/10/03 05:07:49;;;;;;;2.95;0.40;;;21.00;99.90;;;;;;5075416;28;20029;-65
2022/10/03 05:10:28;;;;;;;2.95;0.30;;;20.50;99.90;;;;;;5074895;28;20036;-65
2022/10/03 05:13:21;;;;;;;1.75;0.38;;;20.60;99.90;;;;;;5074866;28;20109;-65
2022/10/03 05:16:27;;;;;;;1.45;0.30;;;20.60;99.90;;;;;;5074767;28;20384;-66
2022/10/03 05:19:07;;;;;;;1.85;0.35;;;20.70;99.90;;;;;;5032534;28;20382;-66
2022/10/03 05:21:47;;;;;;;1.38;0.32;;;20.60;99.90;;;;;;5070267;28;20040;-66
2022/10/03 05:24:52;;;;;;;1.83;0.40;;;20.30;99.90;;;;;;5074606;28;20120;-67
2022/10/03 05:27:40;;;;;;;1.67;0.50;;;20.60;99.90;;;;;;5073835;28;20029;-67
2022/10/03 05:30:17;;;;;;;2.50;0.30;;;20.30;99.70;;;;;;5074499;28;20024;-65
2022/10/03 05:32:50;;;;;;;2.03;0.73;;;20.10;99.90;;;;;;5074745;28;20031;-66
2022/10/03 05:35:55;;;;;;;2.35;0.98;;;20.10;99.90;;;;;;5074305;28;20017;-66
2022/10/03 05:39:02;;;;;;;1.90;0.40;;;19.90;99.90;;;;;;5065337;28;20111;-67
2022/10/03 05:41:35;;;;;;;3.53;0.50;;;20.00;99.90;;;;;;5074221;28;20061;-66
2022/10/03 05:44:18;;;;;;;3.45;0.47;;;20.20;99.90;;;;;;5072748;28;20055;-65
2022/10/03 05:47:00;;;;;;;2.33;0.45;;;20.30;99.90;;;;;;5074126;28;20024;-66
2022/10/03 05:50:05;;;;;;;1.77;0.60;;;20.40;99.90;;;;;;5072772;28;20042;-65
2022/10/03 05:52:44;;;;;;;1.73;0.50;;;20.20;99.80;;;;;;5065229;28;20393;-65
2022/10/03 05:55:43;;;;;;;4.60;0.50;;;20.00;99.90;;;;;;5073801;28;20016;-65
2022/10/03 05:58:36;;;;;;;2.67;0.50;;;19.70;99.90;;;;;;5051523;28;20115;-65
2022/10/03 06:01:40;;;;;;;1.73;0.25;;;19.40;99.90;;;;;;5072031;28;20070;-64
2022/10/03 06:04:52;;;;;;;1.65;0.45;;;19.10;99.90;;;;;;5073974;28;20071;-64
2022/10/03 06:07:25;;;;;;;1.95;0.20;;;18.60;99.90;;;;;;5072473;28;20123;-64
2022/10/03 06:09:52;;;;;;;2.10;0.30;;;18.50;99.90;;;;;;5074169;28;20017;-64
2022/10/03 06:12:46;;;;;;;0.70;0.22;;;18.40;99.90;;;;;;5073814;28;20072;-66
2022/10/03 06:15:53;;;;;;;1.35;0.32;;;18.30;99.90;;;;;;5069686;28;20033;-63
2022/10/03 06:18:49;;;;;;;3.85;0.63;;;18.20;99.90;;;;;;5072237;28;20135;-63
2022/10/03 06:21:40;;;;;;;2.15;0.40;;;18.20;99.90;;;;;;5073467;28;20025;-64
2022/10/03 06:24:13;;;;;;;1.13;0.50;;;18.10;99.90;;;;;;5073575;28;20074;-64
2022/10/03 06:27:15;;;;;;;3.88;0.32;;;18.20;99.90;;;;;;5073739;28;20039;-64
2022/10/03 06:29:57;;;;;;;3.60;0.47;;;18.40;99.90;;;;;;5036469;28;20433;-63
2022/10/03 06:33:02;;;;;;;1.13;0.40;;;18.90;99.90;;;;;;5073361;28;20017;-65
2022/10/03 06:36:05;;;;;;;1.33;0.28;;;19.30;99.90;;;;;;5057618;28;20061;-64
2022/10/03 06:39:08;;;;;;;1.67;0.57;;;19.70;99.90;;;;;;5071193;28;20036;-65
2022/10/03 06:42:09;;;;;;;6.22;0.57;;;20.00;99.90;;;;;;5072753;28;20186;-64
2022/10/03 06:44:46;;;;;;;;;;;20.30;99.90;;;;;;5072495;28;20136;-65
2022/10/03 06:47:16;;;;;;;1.73;0.45;;;20.20;99.90;;;;;;5072708;28;19958;-65
2022/10/03 06:50:22;;;;;;;1.88;0.32;;;19.90;99.90;;;;;;5070555;28;20028;-65
2022/10/03 06:52:57;;;;;;;1.98;0.57;;;19.80;99.90;;;;;;5070334;28;20028;-66
2022/10/03 06:55:51;;;;;;;1.02;0.30;;;19.50;99.90;;;;;;5070652;28;20021;-65
2022/10/03 06:58:27;;;;;;;3.78;0.57;;;19.20;99.90;;;;;;5072540;28;20484;-65
2022/10/03 07:01:34;;;;;;;1.25;0.38;;;18.60;99.90;;;;;;5070225;28;20078;-66
2022/10/03 07:04:36;;;;;;;2.78;0.60;;;18.10;99.90;;;;;;5070852;28;20028;-68
2022/10/03 07:07:21;;;;;;;2.22;0.30;;;17.80;99.90;;;;;;5038968;28;20052;-65
2022/10/03 07:10:25;;;;;;;3.70;0.50;;;17.60;99.90;;;;;;5072759;28;20017;-65
2022/10/03 07:13:15;;;;;;;4.07;0.50;;;17.40;99.90;;;;;;5073191;28;20025;-66
2022/10/03 07:16:07;;;;;;;1.85;0.47;;;17.40;99.90;;;;;;5073289;28;20024;-66
2022/10/03 07:18:49;;;;;;;0.98;0.30;;;17.20;99.90;;;;;;5072710;28;20073;-66
2022/10/03 07:21:17;;;;;;;1.52;0.55;;;17.10;99.90;;;;;;5072749;28;20024;-67
2022/10/03 07:24:22;;;;;;;1.00;0.40;;;17.00;99.90;;;;;;5072815;28;20021;-66
2022/10/03 07:27:01;;;;;;;1.67;0.50;;;16.90;99.90;;;;;;5051554;28;20543;-66
2022/10/03 07:29:54;;;;;;;1.30;0.43;;;16.90;99.90;;;;;;5072843;28;20044;-66
2022/10/03 07:33:16;;;;;;;1.80;0.52;;;16.80;99.90;;;;;;5072412;28;20079;-66
2022/10/03 07:38:58;;;;;;;2.50;1.00;;;16.70;99.90;;;;;;5072630;28;20033;-66
2022/10/03 07:42:02;;;;;;;2.25;0.70;;;16.60;99.90;;;;;;5072450;28;20021;-66
2022/10/03 07:44:59;;;;;;;1.45;0.40;;;16.60;99.90;;;;;;5072419;28;20041;-66
2022/10/03 07:47:40;;;;;;;1.60;0.30;;;16.50;99.90;;;;;;5072390;28;20027;-66
2022/10/03 07:50:36;;;;;;;2.67;0.80;;;16.40;99.90;;;;;;5071579;28;20017;-66
2022/10/03 07:53:31;;;;;;;1.65;0.40;;;16.40;99.90;;;;;;5076417;28;20016;-66
2022/10/03 07:56:20;;;;;;;3.13;0.60;;;16.30;99.90;;;;;;5076293;28;20385;-66
2022/10/03 07:58:47;;;;;;;1.98;0.35;;;16.10;99.90;;;;;;5076203;28;20067;-66
2022/10/03 08:01:53;;;;;;;1.88;0.60;;;16.10;99.90;;;;;;5076136;28;20111;-66
2022/10/03 08:04:55;;;;;;;1.83;0.65;;;16.00;99.90;;;;;;5076168;28;20017;-66
2022/10/03 08:07:25;;;;;;;2.38;1.00;;;15.90;99.90;;;;;;5056771;28;20086;-66
2022/10/03 08:10:28;;;;;;;1.88;1.00;;;15.80;99.90;;;;;;5075972;28;20100;-67
2022/10/03 08:13:32;;;;;;;1.42;0.80;;;15.70;99.90;;;;;;5075884;28;20036;-66
2022/10/03 08:16:23;;;;;;;1.48;0.50;;;15.60;99.90;;;;;;5074597;28;20024;-66
2022/10/03 08:19:15;;;;;;;1.65;0.40;;;15.50;99.90;;;;;;5075803;28;20112;-66
2022/10/03 08:22:12;;;;;;;1.20;0.25;;;15.40;99.90;;;;;;5075868;28;20035;-66
2022/10/03 08:24:57;;;;;;;2.42;0.60;;;15.40;99.90;;;;;;5072380;28;20028;-67
2022/10/03 08:27:51;;;;;;;1.63;0.40;;;15.30;99.90;;;;;;5075940;28;20031;-66
2022/10/03 08:30:43;;;;;;;1.27;0.40;;;15.20;99.90;;;;;;5075743;28;20021;-66
2022/10/03 08:33:38;;;;;;;2.47;0.60;;;15.10;99.90;;;;;;5075965;28;20048;-67
2022/10/03 08:36:20;;;;;;;1.83;0.38;;;15.20;99.90;;;;;;5074405;28;20488;-65
2022/10/03 08:39:24;;;;;;;2.97;0.57;;;15.10;99.90;;;;;;5075615;28;20021;-65
2022/10/03 08:42:21;;;;;;;0.55;0.40;;;15.10;99.90;;;;;;5075617;28;20024;-65
2022/10/03 08:45:16;;;;;;;1.88;0.55;;;15.10;99.90;;;;;;5075394;28;20123;-66
2022/10/03 08:48:02;;;;;;;1.38;0.32;;;15.10;99.90;;;;;;5075809;28;20385;-64
